Time;durP1;ratioP1;P1;durP2;ratioP2;P2;SDS_P1;SDS_P2;PMS_P1;PMS_P2;Temp;Humidity;BMP_temperature;BMP_pressure;BME280_temperature;BME280_humidity;BME280_pressure;Samples;Min_cycle;Max_cycle;Signal;HPM_P1;HPM_P2
2023/08/12 00:00:18;;;;;;;8.00;4.72;;;16.70;99.90;;;;;;4896586;29;20044;-59
2023/08/12 00:02:46;;;;;;;6.40;4.22;;;16.70;99.90;;;;;;4901037;29;20561;-60
2023/08/12 00:05:13;;;;;;;6.38;4.95;;;16.60;99.90;;;;;;4895357;29;20402;-59
2023/08/12 00:07:44;;;;;;;7.05;4.50;;;16.60;99.90;;;;;;4896736;29;20041;-59
2023/08/12 00:10:12;;;;;;;6.80;4.90;;;16.60;99.90;;;;;;4895498;29;20055;-59
2023/08/12 00:12:39;;;;;;;7.15;4.47;;;16.50;99.90;;;;;;4896509;29;20045;-58
2023/08/12 00:15:08;;;;;;;9.95;4.60;;;16.50;99.90;;;;;;4895480;29;20128;-60
2023/08/12 00:17:37;;;;;;;5.07;4.03;;;16.50;99.90;;;;;;4895180;29;20581;-60
2023/08/12 00:20:10;;;;;;;9.50;4.40;;;16.50;99.90;;;;;;4896418;29;20052;-60
2023/08/12 00:22:37;;;;;;;7.70;4.55;;;16.40;99.90;;;;;;4896152;29;20040;-59
2023/08/12 00:25:05;;;;;;;6.70;4.25;;;16.40;99.90;;;;;;4895961;29;20049;-59
2023/08/12 00:27:32;;;;;;;6.32;4.60;;;16.40;99.90;;;;;;4895477;29;20048;-60
2023/08/12 00:29:59;;;;;;;8.60;4.72;;;16.30;99.90;;;;;;4905810;29;20051;-60
2023/08/12 00:32:25;;;;;;;10.23;5.50;;;16.30;99.90;;;;;;4895302;29;20056;-59
2023/08/12 00:34:52;;;;;;;7.50;4.55;;;16.30;99.90;;;;;;4904018;29;20108;-60
2023/08/12 00:37:19;;;;;;;7.35;5.13;;;16.30;99.90;;;;;;4909275;29;20056;-60
2023/08/12 00:39:46;;;;;;;8.95;4.45;;;16.40;99.90;;;;;;4895888;29;20037;-60
2023/08/12 00:42:13;;;;;;;6.85;4.95;;;16.30;99.90;;;;;;4895123;29;20052;-60
2023/08/12 00:44:39;;;;;;;7.00;5.18;;;16.30;99.90;;;;;;4909313;29;20066;-60
2023/08/12 00:47:07;;;;;;;10.25;5.13;;;16.30;99.90;;;;;;4889495;29;20068;-60
2023/08/12 00:49:33;;;;;;;;;;;16.20;99.90;;;;;;4910026;29;20040;-61
2023/08/12 00:52:01;;;;;;;7.82;4.50;;;16.20;99.90;;;;;;4895365;29;19923;-60
2023/08/12 00:54:27;;;;;;;;;;;16.20;99.90;;;;;;4894616;29;20049;-61
2023/08/12 00:56:55;;;;;;;8.02;4.53;;;16.10;99.90;;;;;;4904439;29;19923;-58
2023/08/12 00:59:22;;;;;;;;;;;16.00;99.90;;;;;;4911000;29;20052;-60
2023/08/12 01:01:49;;;;;;;4.75;4.10;;;16.00;99.90;;;;;;4898672;29;19935;-59
2023/08/12 01:04:16;;;;;;;6.65;4.30;;;15.90;99.90;;;;;;4895871;29;20100;-61
2023/08/12 01:06:43;;;;;;;7.63;4.32;;;15.90;99.90;;;;;;4904588;29;20402;-60
2023/08/12 01:09:09;;;;;;;10.82;5.10;;;15.90;99.90;;;;;;4906323;29;20063;-59
2023/08/12 01:11:45;;;;;;;6.88;4.35;;;15.90;99.90;;;;;;4908599;29;20059;-59
2023/08/12 01:14:27;;;;;;;8.02;4.30;;;15.90;99.90;;;;;;4895498;29;20091;-58
2023/08/12 01:17:02;;;;;;;7.20;4.90;;;15.90;99.90;;;;;;4903521;29;20048;-60
2023/08/12 01:19:36;;;;;;;9.55;4.63;;;16.00;99.90;;;;;;4909383;29;20060;-60
2023/08/12 01:22:04;;;;;;;6.80;4.55;;;16.10;99.90;;;;;;4895952;29;20051;-60
2023/08/12 01:24:39;;;;;;;7.95;4.65;;;16.10;99.90;;;;;;4908734;29;20052;-61
2023/08/12 01:27:07;;;;;;;6.45;4.97;;;16.20;99.90;;;;;;4905456;29;20059;-60
2023/08/12 01:29:37;;;;;;;9.75;5.03;;;16.20;99.90;;;;;;4894566;29;20439;-58
2023/08/12 01:32:23;;;;;;;9.55;5.03;;;16.20;99.90;;;;;;4899173;29;20055;-58
2023/08/12 01:35:17;;;;;;;7.10;4.32;;;16.20;99.90;;;;;;4912996;29;20048;-61
2023/08/12 01:37:47;;;;;;;10.65;4.50;;;16.10;99.90;;;;;;4897064;29;20071;-60
2023/08/12 01:40:16;;;;;;;5.88;4.18;;;16.00;99.90;;;;;;4920609;29;20474;-58
2023/08/12 01:42:44;;;;;;;6.55;4.32;;;15.90;99.90;;;;;;4896843;29;20140;-58
2023/08/12 01:45:13;;;;;;;5.43;4.18;;;15.90;99.90;;;;;;4905466;29;20044;-60
2023/08/12 01:47:43;;;;;;;6.45;3.97;;;16.10;99.90;;;;;;4898018;29;20402;-60
2023/08/12 01:50:10;;;;;;;9.55;4.43;;;16.10;99.90;;;;;;4900858;29;20455;-59
2023/08/12 01:52:37;;;;;;;6.07;4.30;;;16.20;99.90;;;;;;4911067;29;20402;-59
2023/08/12 01:55:04;;;;;;;8.43;4.38;;;16.10;99.90;;;;;;4897615;29;20049;-60
2023/08/12 01:57:31;;;;;;;5.03;4.05;;;16.00;99.90;;;;;;4910811;29;20056;-58
2023/08/12 01:59:57;;;;;;;7.05;4.07;;;16.10;99.90;;;;;;4899090;29;20048;-60
2023/08/12 02:02:24;;;;;;;9.75;4.60;;;16.00;99.90;;;;;;4912203;29;20056;-58
2023/08/12 02:04:51;;;;;;;6.93;4.38;;;15.90;99.90;;;;;;4897362;29;20044;-60
2023/08/12 02:07:18;;;;;;;5.47;3.70;;;15.90;99.90;;;;;;4913048;29;20055;-60
2023/08/12 02:09:44;;;;;;;8.82;4.10;;;15.90;99.90;;;;;;4904573;29;20045;-60
2023/08/12 02:12:11;;;;;;;7.32;4.63;;;15.90;99.90;;;;;;4904896;29;20064;-59
2023/08/12 02:14:38;;;;;;;9.00;4.70;;;15.90;99.90;;;;;;4897848;29;20422;-60
2023/08/12 02:17:05;;;;;;;9.45;4.50;;;15.80;99.90;;;;;;4906356;29;20525;-59
2023/08/12 02:19:33;;;;;;;7.32;4.40;;;15.80;99.90;;;;;;4912868;29;20139;-60
2023/08/12 02:22:01;;;;;;;5.28;4.20;;;15.80;99.90;;;;;;4898077;29;20055;-61
2023/08/12 02:24:28;;;;;;;10.05;5.03;;;15.80;99.90;;;;;;4909786;29;20447;-60
2023/08/12 02:26:55;;;;;;;6.50;4.20;;;15.80;99.90;;;;;;4905758;29;20049;-60
2023/08/12 02:29:24;;;;;;;5.97;4.40;;;15.70;99.90;;;;;;4912059;29;20049;-60
2023/08/12 02:31:50;;;;;;;6.50;4.35;;;15.70;99.90;;;;;;4911633;29;20134;-60
2023/08/12 02:34:19;;;;;;;6.82;4.78;;;15.70;99.90;;;;;;4908229;29;20051;-59
2023/08/12 02:36:46;;;;;;;5.68;4.63;;;15.70;99.90;;;;;;4912215;29;20127;-59
2023/08/12 02:39:15;;;;;;;7.32;4.70;;;15.70;99.90;;;;;;4908016;29;20053;-59
2023/08/12 02:41:42;;;;;;;8.02;5.28;;;15.60;99.90;;;;;;4908736;29;20080;-58
2023/08/12 02:44:09;;;;;;;8.88;4.22;;;15.60;99.90;;;;;;4897733;29;20051;-60
2023/08/12 02:46:36;;;;;;;9.45;5.03;;;15.60;99.90;;;;;;4909642;29;20060;-58
2023/08/12 02:49:03;;;;;;;6.15;4.65;;;15.60;99.90;;;;;;4906063;29;20147;-59
2023/08/12 02:51:29;;;;;;;7.80;4.90;;;15.60;99.90;;;;;;4907947;29;20037;-60
2023/08/12 02:53:56;;;;;;;5.90;4.32;;;15.60;99.90;;;;;;4888723;29;20119;-58
2023/08/12 02:56:23;;;;;;;6.40;4.53;;;15.60;99.90;;;;;;4904907;29;20056;-59
2023/08/12 02:58:50;;;;;;;5.90;4.60;;;15.60;99.90;;;;;;4897194;29;20037;-60
2023/08/12 03:01:16;;;;;;;10.27;5.28;;;15.60;99.90;;;;;;4900798;29;20067;-60
2023/08/12 03:03:44;;;;;;;5.78;4.35;;;15.50;99.90;;;;;;4911308;29;20100;-60
2023/08/12 03:06:12;;;;;;;7.60;4.95;;;15.50;99.90;;;;;;4906103;29;20163;-60
2023/08/12 03:08:39;;;;;;;5.47;4.75;;;15.50;99.90;;;;;;4911194;29;20053;-57
2023/08/12 03:11:07;;;;;;;6.85;4.82;;;15.50;99.90;;;;;;4902411;29;20109;-59
2023/08/12 03:13:34;;;;;;;8.77;4.88;;;15.50;99.90;;;;;;4901818;29;20443;-59
2023/08/12 03:16:01;;;;;;;;;;;15.40;99.90;;;;;;4904774;29;20048;-60
2023/08/12 03:18:28;;;;;;;5.80;4.45;;;15.40;99.90;;;;;;4911081;29;20371;-60
2023/08/12 03:20:55;;;;;;;7.30;4.90;;;15.40;99.90;;;;;;4896343;29;20473;-59
2023/08/12 03:23:24;;;;;;;10.00;4.90;;;15.30;99.90;;;;;;4910668;29;20049;-60
2023/08/12 03:25:51;;;;;;;;;;;15.30;99.90;;;;;;4910972;29;20052;-58
2023/08/12 03:28:19;;;;;;;7.07;5.03;;;15.30;99.90;;;;;;4899309;29;19930;-59
2023/08/12 03:30:53;;;;;;;;;;;15.30;99.90;;;;;;4910599;29;20049;-60
2023/08/12 03:33:22;;;;;;;8.02;4.45;;;15.30;99.90;;;;;;4906789;29;19927;-59
2023/08/12 03:35:50;;;;;;;7.32;4.80;;;15.30;99.90;;;;;;4910446;29;20048;-60
2023/08/12 03:38:17;;;;;;;7.72;4.82;;;15.20;99.90;;;;;;4900250;29;20053;-60
2023/08/12 03:40:45;;;;;;;5.88;4.43;;;15.20;99.90;;;;;;4911167;29;20100;-59
2023/08/12 03:43:14;;;;;;;5.82;4.38;;;15.30;99.90;;;;;;4904212;29;20048;-60
2023/08/12 03:45:43;;;;;;;6.82;4.63;;;15.30;99.90;;;;;;4896518;29;20048;-59
2023/08/12 03:48:12;;;;;;;11.07;4.60;;;15.30;99.90;;;;;;4905154;29;20047;-59
2023/08/12 03:50:39;;;;;;;6.63;4.13;;;15.30;99.90;;;;;;4909973;29;20076;-60
2023/08/12 03:53:08;;;;;;;5.10;4.47;;;15.30;99.90;;;;;;4904053;29;20127;-57
2023/08/12 03:55:36;;;;;;;8.80;4.30;;;15.30;99.90;;;;;;4911004;29;20080;-59
2023/08/12 03:58:03;;;;;;;9.98;4.50;;;15.30;99.90;;;;;;4902011;29;20048;-60
2023/08/12 04:00:31;;;;;;;6.82;4.40;;;15.40;99.90;;;;;;4910270;29;20052;-59
2023/08/12 04:02:59;;;;;;;9.55;4.85;;;15.30;99.90;;;;;;4910493;29;20044;-60
2023/08/12 04:05:27;;;;;;;6.85;4.15;;;15.30;99.90;;;;;;4898657;29;20043;-60
2023/08/12 04:07:54;;;;;;;4.72;3.97;;;15.20;99.90;;;;;;4896480;29;20055;-60
2023/08/12 04:10:20;;;;;;;6.55;4.03;;;15.20;99.90;;;;;;4905043;29;20144;-60
2023/08/12 04:12:51;;;;;;;8.00;4.47;;;15.20;99.90;;;;;;4910704;29;20128;-60
2023/08/12 04:15:18;;;;;;;4.70;4.05;;;15.20;99.90;;;;;;4905008;29;20052;-60
2023/08/12 04:17:45;;;;;;;6.05;4.38;;;15.20;99.90;;;;;;4910661;29;20052;-60
2023/08/12 04:20:12;;;;;;;8.63;4.25;;;15.20;99.90;;;;;;4904797;29;20072;-59
2023/08/12 04:22:38;;;;;;;4.65;3.95;;;15.30;99.90;;;;;;4909728;29;20139;-60
2023/08/12 04:25:06;;;;;;;6.93;4.70;;;15.30;99.90;;;;;;4896945;29;20506;-59
2023/08/12 04:27:34;;;;;;;9.23;4.70;;;15.40;99.90;;;;;;4910723;29;20045;-59
2023/08/12 04:30:01;;;;;;;6.03;4.38;;;15.40;99.90;;;;;;4909902;29;20060;-60
2023/08/12 04:32:30;;;;;;;6.30;3.80;;;15.40;99.90;;;;;;4910834;29;20139;-59
2023/08/12 04:34:56;;;;;;;6.07;4.45;;;15.40;99.90;;;;;;4893571;29;20148;-59
2023/08/12 04:37:25;;;;;;;7.00;4.70;;;15.40;99.90;;;;;;4905922;29;20052;-59
2023/08/12 04:39:53;;;;;;;7.63;4.30;;;15.40;99.90;;;;;;4895999;29;20100;-59
2023/08/12 04:42:21;;;;;;;5.72;3.90;;;15.30;99.90;;;;;;4904304;29;20057;-60
2023/08/12 04:44:47;;;;;;;7.75;3.97;;;15.30;99.90;;;;;;4895757;29;20052;-59
2023/08/12 04:47:15;;;;;;;7.40;3.83;;;15.40;99.90;;;;;;4904348;29;20132;-60
2023/08/12 04:49:42;;;;;;;;;;;15.30;99.90;;;;;;4896612;29;20120;-60
2023/08/12 04:52:09;;;;;;;10.00;3.78;;;15.30;99.90;;;;;;4897786;29;19923;-60
2023/08/12 04:54:36;;;;;;;8.27;4.28;;;15.40;99.90;;;;;;4909273;29;20048;-60
2023/08/12 04:57:05;;;;;;;8.85;4.20;;;15.40;99.90;;;;;;4910064;29;20053;-58
2023/08/12 04:59:35;;;;;;;4.63;3.70;;;15.50;99.90;;;;;;4905536;29;20048;-60
2023/08/12 05:02:02;;;;;;;5.82;4.40;;;15.50;99.90;;;;;;4894908;29;20076;-60
2023/08/12 05:04:34;;;;;;;6.20;4.13;;;15.60;99.90;;;;;;4900360;29;20409;-60
2023/08/12 05:07:00;;;;;;;7.63;4.53;;;15.50;99.90;;;;;;4899463;29;20529;-60
2023/08/12 05:09:28;;;;;;;6.72;5.10;;;15.60;99.90;;;;;;4909304;29;20041;-60
2023/08/12 05:11:57;;;;;;;7.43;4.35;;;15.60;99.90;;;;;;4912813;29;20044;-60
2023/08/12 05:14:24;;;;;;;7.70;4.03;;;15.70;99.90;;;;;;4898775;29;20191;-60
2023/08/12 05:16:51;;;;;;;6.78;4.50;;;15.70;99.90;;;;;;4899672;29;20486;-60
2023/08/12 05:19:18;;;;;;;6.97;4.78;;;15.70;99.90;;;;;;4906348;29;20055;-60
2023/08/12 05:21:48;;;;;;;9.45;4.32;;;15.80;99.90;;;;;;4893524;29;20049;-60
2023/08/12 05:24:15;;;;;;;5.05;4.05;;;15.80;99.90;;;;;;4900236;29;20049;-59
2023/08/12 05:26:42;;;;;;;5.22;4.28;;;15.80;99.90;;;;;;4911452;29;20044;-60
2023/08/12 05:29:09;;;;;;;6.57;4.18;;;15.90;99.90;;;;;;4898872;29;20049;-60
2023/08/12 05:31:36;;;;;;;6.38;4.32;;;15.90;99.90;;;;;;4897782;29;20072;-60
2023/08/12 05:34:04;;;;;;;5.15;4.10;;;16.00;99.90;;;;;;4896757;29;20131;-59
2023/08/12 05:36:31;;;;;;;4.50;3.90;;;16.00;99.90;;;;;;4898296;29;20037;-60
2023/08/12 05:38:58;;;;;;;6.57;3.65;;;16.10;99.90;;;;;;4897160;29;20055;-59
2023/08/12 05:41:25;;;;;;;5.60;3.63;;;16.00;99.90;;;;;;4907980;29;20063;-60
2023/08/12 05:43:52;;;;;;;5.03;3.60;;;16.10;99.90;;;;;;4897201;29;20056;-59
2023/08/12 05:46:18;;;;;;;5.85;3.80;;;16.20;99.90;;;;;;4899082;29;20051;-61
2023/08/12 05:48:45;;;;;;;5.75;3.97;;;16.20;99.90;;;;;;4898066;29;20191;-58
2023/08/12 05:51:12;;;;;;;5.10;3.65;;;16.30;99.90;;;;;;4899100;29;20047;-60
2023/08/12 05:53:39;;;;;;;5.22;3.95;;;16.30;99.90;;;;;;4897216;29;20401;-60
2023/08/12 05:56:06;;;;;;;5.35;3.70;;;16.40;99.90;;;;;;4898762;29;20082;-59
2023/08/12 05:58:32;;;;;;;8.20;4.22;;;16.50;99.90;;;;;;4896011;29;20044;-59
2023/08/12 06:00:59;;;;;;;6.25;4.25;;;16.50;99.90;;;;;;4898675;29;20040;-60
2023/08/12 06:03:26;;;;;;;4.82;3.90;;;16.50;99.90;;;;;;4897247;29;20629;-58
2023/08/12 06:05:53;;;;;;;8.23;3.97;;;16.60;99.90;;;;;;4898595;29;20048;-60
2023/08/12 06:08:20;;;;;;;5.13;3.70;;;16.70;99.90;;;;;;4898373;29;20040;-59
2023/08/12 06:10:46;;;;;;;5.40;3.67;;;16.70;99.90;;;;;;4896264;29;20509;-60
2023/08/12 06:13:13;;;;;;;8.70;4.55;;;16.80;99.90;;;;;;4898324;29;20486;-58
2023/08/12 06:15:40;;;;;;;5.97;3.85;;;16.90;99.90;;;;;;4897609;29;20075;-60
2023/08/12 06:18:07;;;;;;;5.38;3.88;;;16.90;99.90;;;;;;4898526;29;20056;-60
2023/08/12 06:20:34;;;;;;;5.57;3.88;;;16.90;99.90;;;;;;4897640;29;20054;-61
2023/08/12 06:23:01;;;;;;;6.07;3.53;;;17.00;99.90;;;;;;4897925;29;20060;-61
2023/08/12 06:25:28;;;;;;;8.55;4.00;;;17.00;99.90;;;;;;4898464;29;20495;-60
2023/08/12 06:27:55;;;;;;;7.70;4.32;;;17.10;99.90;;;;;;4897881;29;20036;-60
2023/08/12 06:30:22;;;;;;;3.83;3.33;;;17.20;99.90;;;;;;4893347;29;20108;-58
2023/08/12 06:32:48;;;;;;;4.88;3.47;;;17.30;99.90;;;;;;4897960;29;20538;-61
2023/08/12 06:35:15;;;;;;;6.30;3.92;;;17.60;99.90;;;;;;4894874;29;20078;-58
2023/08/12 06:37:42;;;;;;;6.82;3.67;;;17.80;99.90;;;;;;4898173;29;20127;-60
2023/08/12 06:40:09;;;;;;;5.90;3.60;;;18.00;99.90;;;;;;4895581;29;20145;-60
2023/08/12 06:42:36;;;;;;;4.63;3.60;;;18.10;99.90;;;;;;4898257;29;20127;-60
2023/08/12 06:45:04;;;;;;;6.50;3.42;;;18.20;99.90;;;;;;4909619;29;20135;-59
2023/08/12 06:47:31;;;;;;;6.43;3.70;;;18.30;99.90;;;;;;4898016;29;20104;-60
2023/08/12 06:49:58;;;;;;;;;;;18.30;99.90;;;;;;4897152;29;20045;-59
2023/08/12 06:52:25;;;;;;;5.15;3.85;;;18.50;99.90;;;;;;4898049;29;20285;-61
2023/08/12 06:54:51;;;;;;;6.20;3.42;;;18.70;99.90;;;;;;4897345;29;20053;-61
2023/08/12 06:57:18;;;;;;;5.70;3.63;;;18.90;99.90;;;;;;4897938;29;20055;-59
2023/08/12 06:59:45;;;;;;;5.00;3.50;;;19.00;99.90;;;;;;4889156;29;20428;-61
2023/08/12 07:02:12;;;;;;;4.38;3.65;;;19.10;99.90;;;;;;4896943;29;20056;-61
2023/08/12 07:04:39;;;;;;;6.65;3.83;;;19.20;99.90;;;;;;4896786;29;20110;-61
2023/08/12 07:07:06;;;;;;;6.68;3.65;;;19.20;99.90;;;;;;4896289;29;20048;-60
2023/08/12 07:09:33;;;;;;;6.07;3.65;;;19.40;99.90;;;;;;4897186;29;20044;-60
2023/08/12 07:12:01;;;;;;;7.60;4.10;;;19.60;99.90;;;;;;4895424;29;20040;-59
2023/08/12 07:14:28;;;;;;;6.20;3.38;;;19.60;99.90;;;;;;4896601;29;20036;-61
2023/08/12 07:16:55;;;;;;;5.78;3.80;;;19.80;99.90;;;;;;4896263;29;20092;-61
2023/08/12 07:19:22;;;;;;;8.30;4.07;;;19.90;99.90;;;;;;4893334;29;20046;-61
2023/08/12 07:21:49;;;;;;;4.15;3.53;;;19.90;99.90;;;;;;4894829;29;20091;-60
2023/08/12 07:24:15;;;;;;;5.70;3.67;;;19.90;99.90;;;;;;4895432;29;20052;-61
2023/08/12 07:26:42;;;;;;;4.40;3.45;;;20.10;99.90;;;;;;4896893;29;20048;-61
2023/08/12 07:29:09;;;;;;;4.60;3.30;;;20.10;99.90;;;;;;4895472;29;20489;-60
2023/08/12 07:31:36;;;;;;;6.57;3.63;;;20.20;99.90;;;;;;4897316;29;20036;-60
2023/08/12 07:34:03;;;;;;;5.30;3.60;;;20.40;99.90;;;;;;4896396;29;20064;-60
2023/08/12 07:36:29;;;;;;;6.30;3.88;;;20.50;99.90;;;;;;4897013;29;20040;-61
2023/08/12 07:38:56;;;;;;;5.50;3.35;;;20.60;99.90;;;;;;4895788;29;20041;-61
2023/08/12 07:41:23;;;;;;;5.43;3.25;;;20.70;99.90;;;;;;4896529;29;20040;-60
2023/08/12 07:43:50;;;;;;;;;;;20.80;99.90;;;;;;4896303;29;20040;-60
2023/08/12 07:46:17;;;;;;;3.88;3.25;;;21.00;99.90;;;;;;4904489;29;19930;-60
2023/08/12 07:48:44;;;;;;;3.75;3.28;;;21.10;99.90;;;;;;4895084;29;20055;-61
2023/08/12 07:51:10;;;;;;;4.50;3.15;;;21.30;99.90;;;;;;4896861;29;20049;-61
2023/08/12 07:53:37;;;;;;;4.68;3.42;;;21.40;99.90;;;;;;4896275;29;20127;-61
2023/08/12 07:56:04;;;;;;;4.05;3.28;;;21.50;99.90;;;;;;4896769;29;20559;-61
2023/08/12 07:58:31;;;;;;;6.53;3.10;;;21.60;99.90;;;;;;4895828;29;20406;-61
2023/08/12 08:00:57;;;;;;;4.80;3.42;;;21.70;99.90;;;;;;4895547;29;20046;-60
2023/08/12 08:03:25;;;;;;;4.38;3.33;;;21.60;99.90;;;;;;4896044;29;20059;-61
2023/08/12 08:05:52;;;;;;;5.13;3.15;;;21.80;99.90;;;;;;4896457;29;20498;-60
2023/08/12 08:08:20;;;;;;;3.65;3.17;;;21.90;99.90;;;;;;4896706;29;20112;-60
2023/08/12 08:10:46;;;;;;;3.47;3.10;;;22.00;99.90;;;;;;4895009;29;20115;-60
2023/08/12 08:13:13;;;;;;;3.83;3.38;;;22.20;99.90;;;;;;4895702;29;20045;-61
2023/08/12 08:15:40;;;;;;;4.20;3.38;;;22.40;99.90;;;;;;4894927;29;20068;-58
2023/08/12 08:18:07;;;;;;;4.68;3.40;;;22.70;99.90;;;;;;4908424;29;20049;-59
2023/08/12 08:20:35;;;;;;;4.00;3.20;;;23.00;99.90;;;;;;4895303;29;20123;-58
2023/08/12 08:23:02;;;;;;;3.20;2.90;;;23.30;99.90;;;;;;4894595;29;20643;-60
2023/08/12 08:25:28;;;;;;;;;;;23.50;99.90;;;;;;4894104;29;20036;-61
2023/08/12 08:27:55;;;;;;;4.88;3.45;;;23.50;99.90;;;;;;4896580;29;20294;-60
2023/08/12 08:30:22;;;;;;;5.30;3.42;;;23.80;99.90;;;;;;4895794;29;20048;-60
2023/08/12 08:32:49;;;;;;;6.43;3.58;;;23.80;99.90;;;;;;4895503;29;20045;-59
2023/08/12 08:35:16;;;;;;;4.45;3.80;;;23.90;99.90;;;;;;4895471;29;20044;-61
2023/08/12 08:37:43;;;;;;;5.60;3.53;;;23.90;99.90;;;;;;4893317;29;20117;-61
2023/08/12 08:40:10;;;;;;;4.07;3.47;;;23.90;99.90;;;;;;4896513;29;20049;-57
2023/08/12 08:42:37;;;;;;;5.15;3.20;;;23.90;99.90;;;;;;4898872;29;20115;-59
2023/08/12 08:45:11;;;;;;;3.83;3.45;;;24.10;99.90;;;;;;4896747;29;20044;-58
2023/08/12 08:47:40;;;;;;;9.02;3.40;;;24.20;99.90;;;;;;4899076;29;20088;-59
2023/08/12 08:50:09;;;;;;;5.68;3.67;;;24.40;99.90;;;;;;4898410;29;20040;-60
2023/08/12 08:52:37;;;;;;;4.97;3.25;;;24.50;99.90;;;;;;4894775;29;20119;-60
2023/08/12 08:55:05;;;;;;;7.43;4.10;;;24.60;99.90;;;;;;4898231;29;20124;-61
2023/08/12 08:57:34;;;;;;;7.97;4.18;;;24.80;99.90;;;;;;4896967;29;20096;-58
2023/08/12 09:00:09;;;;;;;4.20;3.70;;;24.90;99.90;;;;;;4896376;29;20044;-60
2023/08/12 09:02:40;;;;;;;5.60;3.47;;;25.10;99.90;;;;;;4899711;29;20036;-61
2023/08/12 09:05:07;;;;;;;4.03;3.40;;;25.40;99.90;;;;;;4896077;29;20047;-60
2023/08/12 09:07:34;;;;;;;3.90;3.38;;;25.50;99.90;;;;;;4896532;29;20068;-66
2023/08/12 09:10:03;;;;;;;;;;;25.50;99.90;;;;;;4898805;29;20529;-61
2023/08/12 09:12:31;;;;;;;6.35;3.53;;;25.50;99.90;;;;;;4898681;29;19923;-59
2023/08/12 09:14:58;;;;;;;3.60;3.03;;;25.70;99.90;;;;;;4897425;29;20112;-61
2023/08/12 09:17:25;;;;;;;3.60;3.30;;;26.10;99.90;;;;;;4899326;29;20067;-61
2023/08/12 09:19:52;;;;;;;3.20;2.90;;;26.10;99.90;;;;;;4898140;29;20048;-61
2023/08/12 09:22:19;;;;;;;5.00;3.17;;;26.10;99.90;;;;;;4895305;29;20041;-61
2023/08/12 09:24:46;;;;;;;;;;;26.40;99.90;;;;;;4897566;29;20048;-61
2023/08/12 09:27:18;;;;;;;5.72;3.40;;;26.60;99.90;;;;;;4899248;29;19927;-59
2023/08/12 09:29:44;;;;;;;4.13;3.17;;;26.70;99.90;;;;;;4898910;29;20131;-62
2023/08/12 09:32:21;;;;;;;4.13;3.45;;;26.70;99.90;;;;;;4897255;29;20438;-61
2023/08/12 09:34:53;;;;;;;3.90;3.42;;;26.40;99.90;;;;;;4897192;29;20060;-61
2023/08/12 09:37:23;;;;;;;5.10;3.65;;;26.50;99.90;;;;;;4897290;29;20508;-61
2023/08/12 09:39:51;;;;;;;4.28;3.25;;;26.70;99.90;;;;;;4898916;29;20041;-61
2023/08/12 09:42:20;;;;;;;5.13;3.60;;;26.90;99.90;;;;;;4897738;29;20119;-61
2023/08/12 09:44:47;;;;;;;;;;;26.90;99.90;;;;;;4898541;29;20491;-59
2023/08/12 09:47:14;;;;;;;5.85;3.17;;;26.90;99.90;;;;;;4898090;29;19938;-61
2023/08/12 09:49:41;;;;;;;4.38;3.33;;;26.80;99.90;;;;;;4898791;29;20048;-61
2023/08/12 09:52:08;;;;;;;;;;;26.60;99.90;;;;;;4898772;29;20052;-60
2023/08/12 09:54:35;;;;;;;9.10;3.63;;;26.50;99.90;;;;;;4896837;29;19930;-61
2023/08/12 09:57:04;;;;;;;4.13;3.47;;;26.30;99.90;;;;;;4894024;29;20066;-60
2023/08/12 09:59:34;;;;;;;3.95;2.85;;;26.20;99.90;;;;;;4897860;29;20044;-61
2023/08/12 10:02:07;;;;;;;7.07;3.00;;;26.40;99.90;;;;;;4898050;29;20060;-61
2023/08/12 10:04:42;;;;;;;3.22;2.92;;;26.70;99.90;;;;;;4889454;29;20581;-61
2023/08/12 10:07:15;;;;;;;3.67;2.80;;;27.10;99.90;;;;;;4898577;29;20402;-61
2023/08/12 10:09:42;;;;;;;3.15;2.85;;;27.40;99.90;;;;;;4897986;29;20043;-61
2023/08/12 10:12:10;;;;;;;3.10;2.80;;;27.60;99.90;;;;;;4898549;29;20052;-61
2023/08/12 10:14:38;;;;;;;3.65;2.90;;;27.70;99.90;;;;;;4897687;29;20053;-60
2023/08/12 10:17:05;;;;;;;3.58;3.28;;;27.70;99.60;;;;;;4898615;29;20509;-61
2023/08/12 10:19:33;;;;;;;4.78;3.00;;;27.60;99.90;;;;;;4898638;29;20044;-61
2023/08/12 10:22:03;;;;;;;6.55;3.40;;;27.70;99.10;;;;;;4898610;29;20554;-60
2023/08/12 10:24:31;;;;;;;3.67;3.05;;;27.70;99.70;;;;;;4895813;29;20506;-60
2023/08/12 10:26:58;;;;;;;3.75;3.10;;;27.70;98.70;;;;;;4898353;29;20044;-61
2023/08/12 10:29:25;;;;;;;3.70;3.08;;;27.70;99.90;;;;;;4897566;29;20410;-60
2023/08/12 10:31:52;;;;;;;;;;;27.80;98.00;;;;;;4895941;29;20033;-62
2023/08/12 10:34:25;;;;;;;3.00;2.70;;;27.90;97.60;;;;;;4897162;29;19929;-60
2023/08/12 10:37:03;;;;;;;3.33;3.03;;;28.00;97.50;;;;;;4896622;29;20056;-61
2023/08/12 10:39:33;;;;;;;4.60;3.28;;;28.10;98.40;;;;;;4896233;29;20048;-60
2023/08/12 10:42:00;;;;;;;3.17;2.88;;;28.20;99.90;;;;;;4894896;29;20056;-61
2023/08/12 10:44:40;;;;;;;4.50;3.70;;;28.30;99.50;;;;;;4896132;29;20072;-62
2023/08/12 10:47:10;;;;;;;4.32;3.42;;;28.50;98.20;;;;;;4896730;29;20044;-60
2023/08/12 10:49:42;;;;;;;2.92;2.72;;;28.60;98.20;;;;;;4897330;29;20095;-61
2023/08/12 10:52:26;;;;;;;4.60;3.03;;;28.80;97.90;;;;;;4897267;29;20116;-61
2023/08/12 10:54:53;;;;;;;3.13;2.90;;;29.10;97.20;;;;;;4896643;29;20044;-61
2023/08/12 10:57:38;;;;;;;3.45;2.90;;;29.40;97.70;;;;;;4896010;29;20047;-60
2023/08/12 11:00:16;;;;;;;4.38;3.20;;;29.80;96.00;;;;;;4895433;29;20056;-63
2023/08/12 11:02:49;;;;;;;5.43;3.30;;;30.00;96.80;;;;;;4895341;29;20047;-61
2023/08/12 11:05:18;;;;;;;3.13;2.88;;;30.00;95.60;;;;;;4894093;29;20525;-64
2023/08/12 11:08:00;;;;;;;5.90;3.22;;;29.90;96.90;;;;;;4890711;29;20040;-61
2023/08/12 11:10:31;;;;;;;4.57;2.90;;;30.30;96.30;;;;;;4886866;29;20049;-61
2023/08/12 11:13:01;;;;;;;4.00;3.10;;;30.40;96.60;;;;;;4897075;29;20096;-60
2023/08/12 11:15:37;;;;;;;4.00;3.42;;;30.30;97.80;;;;;;4895454;29;20120;-61
2023/08/12 11:18:16;;;;;;;3.80;3.47;;;29.70;98.40;;;;;;4897002;29;20502;-61
2023/08/12 11:20:43;;;;;;;3.75;3.35;;;29.40;99.20;;;;;;4894448;29;20123;-61
2023/08/12 11:23:10;;;;;;;4.13;3.20;;;28.90;99.90;;;;;;4896464;29;20051;-61
2023/08/12 11:25:38;;;;;;;4.93;3.20;;;28.70;99.90;;;;;;4895945;29;20049;-61
2023/08/12 11:28:06;;;;;;;4.68;3.65;;;28.50;99.90;;;;;;4896984;29;20045;-62
2023/08/12 11:30:33;;;;;;;5.00;3.28;;;28.40;99.90;;;;;;4892945;29;20132;-61
2023/08/12 11:33:01;;;;;;;4.68;3.72;;;28.30;99.90;;;;;;4896637;29;20044;-60
2023/08/12 11:35:29;;;;;;;5.22;3.63;;;28.50;99.90;;;;;;4897425;29;20058;-61
2023/08/12 11:37:58;;;;;;;4.40;3.20;;;28.70;99.90;;;;;;4896226;29;20123;-61
2023/08/12 11:40:27;;;;;;;7.57;3.60;;;28.60;99.90;;;;;;4895365;29;20055;-61
2023/08/12 11:42:54;;;;;;;7.22;3.50;;;28.70;99.90;;;;;;4891547;29;20045;-61
2023/08/12 11:45:24;;;;;;;4.88;3.53;;;28.60;99.90;;;;;;4895488;29;20079;-61
2023/08/12 11:47:54;;;;;;;3.60;3.30;;;28.60;99.90;;;;;;4896643;29;20128;-61
2023/08/12 11:50:24;;;;;;;3.85;3.55;;;28.70;99.90;;;;;;4896274;29;20048;-61
2023/08/12 11:52:55;;;;;;;4.75;3.30;;;29.10;99.90;;;;;;4895860;29;20406;-60
2023/08/12 11:55:22;;;;;;;4.18;3.30;;;29.30;99.90;;;;;;4893605;29;20765;-60
2023/08/12 11:57:50;;;;;;;4.72;3.67;;;29.60;99.00;;;;;;4896608;29;20040;-60
2023/08/12 12:00:18;;;;;;;4.53;3.38;;;30.10;99.10;;;;;;4893639;29;20184;-60
2023/08/12 12:02:51;;;;;;;3.95;3.55;;;30.00;98.80;;;;;;4895504;29;20045;-60
2023/08/12 12:05:22;;;;;;;4.65;3.47;;;30.00;98.10;;;;;;4889912;29;20044;-62
2023/08/12 12:07:51;;;;;;;4.53;3.28;;;30.00;98.20;;;;;;4894834;29;20048;-61
2023/08/12 12:10:32;;;;;;;4.40;3.30;;;29.90;98.60;;;;;;4893494;29;20045;-61
2023/08/12 12:13:03;;;;;;;4.07;3.45;;;30.10;99.20;;;;;;4892780;29;20049;-61
2023/08/12 12:15:31;;;;;;;3.50;3.20;;;30.20;98.90;;;;;;4895037;29;20049;-61
2023/08/12 12:17:58;;;;;;;5.63;3.53;;;30.30;98.10;;;;;;4896338;29;20128;-61
2023/08/12 12:20:27;;;;;;;4.57;3.35;;;30.10;97.20;;;;;;4896634;29;20060;-60
2023/08/12 12:23:07;;;;;;;3.30;3.00;;;30.00;98.40;;;;;;4892320;29;20073;-61
2023/08/12 12:25:34;;;;;;;3.78;3.40;;;30.30;97.80;;;;;;4896223;29;20059;-60
2023/08/12 12:28:01;;;;;;;5.38;3.25;;;30.30;97.80;;;;;;4896366;29;20048;-60
2023/08/12 12:30:28;;;;;;;4.47;3.25;;;30.10;98.60;;;;;;4896440;29;20048;-60
2023/08/12 12:32:54;;;;;;;4.97;3.85;;;29.60;99.80;;;;;;4895323;29;20040;-61
2023/08/12 12:35:21;;;;;;;4.40;3.20;;;29.20;99.80;;;;;;4896485;29;20067;-61
2023/08/12 12:37:48;;;;;;;7.65;3.72;;;29.30;99.90;;;;;;4896342;29;20127;-61
2023/08/12 12:40:15;;;;;;;3.88;3.53;;;29.40;99.90;;;;;;4895333;29;20056;-61
2023/08/12 12:42:41;;;;;;;;;;;29.70;99.80;;;;;;4896631;29;20052;-61
2023/08/12 12:45:09;;;;;;;4.05;3.65;;;30.00;99.90;;;;;;4894055;29;19931;-59
2023/08/12 12:47:37;;;;;;;4.63;3.00;;;29.90;99.20;;;;;;4893432;29;20128;-63
2023/08/12 12:50:05;;;;;;;3.83;3.35;;;29.80;98.30;;;;;;4891959;29;20044;-63
2023/08/12 12:52:31;;;;;;;7.85;3.17;;;29.60;99.00;;;;;;4892758;29;20290;-63
2023/08/12 12:54:59;;;;;;;4.43;3.08;;;29.60;99.10;;;;;;4900753;29;20037;-64